Time;durP1;ratioP1;P1;durP2;ratioP2;P2;SDS_P1;SDS_P2;PMS_P1;PMS_P2;Temp;Humidity;BMP_temperature;BMP_pressure;BME280_temperature;BME280_humidity;BME280_pressure;Samples;Min_cycle;Max_cycle;Signal;HPM_P1;HPM_P2
2023/09/18 00:00:51;;;;;;;6.23;4.50;;;25.60;99.90;;;;;;5009222;28;20176;-75
2023/09/18 00:03:19;;;;;;;7.00;4.63;;;25.50;99.90;;;;;;5007198;28;20197;-73
2023/09/18 00:05:45;;;;;;;6.00;4.07;;;25.50;99.90;;;;;;5008582;28;20462;-73
2023/09/18 00:08:11;;;;;;;5.70;4.70;;;25.50;99.90;;;;;;5010213;28;20435;-73
2023/09/18 00:10:36;;;;;;;9.53;5.23;;;25.50;99.90;;;;;;5015197;28;20438;-74
2023/09/18 00:13:02;;;;;;;8.33;4.37;;;25.50;99.90;;;;;;5012983;28;20577;-73
2023/09/18 00:15:28;;;;;;;5.40;4.50;;;25.50;99.90;;;;;;4986423;28;20180;-74
2023/09/18 00:17:54;;;;;;;7.63;3.93;;;25.40;99.90;;;;;;5022053;28;20204;-74
2023/09/18 00:20:20;;;;;;;9.97;4.47;;;25.40;99.90;;;;;;5010935;28;20180;-73
2023/09/18 00:22:46;;;;;;;5.70;4.77;;;25.40;99.90;;;;;;5017356;28;21263;-73
2023/09/18 00:25:12;;;;;;;4.60;4.20;;;25.40;99.90;;;;;;5017970;28;20268;-73
2023/09/18 00:27:37;;;;;;;6.00;4.53;;;25.40;99.90;;;;;;5011025;28;20510;-73
2023/09/18 00:30:04;;;;;;;6.20;4.10;;;25.30;99.90;;;;;;5008096;28;20185;-73
2023/09/18 00:32:30;;;;;;;5.87;4.83;;;25.30;99.90;;;;;;5014215;28;20267;-73
2023/09/18 00:34:55;;;;;;;7.30;5.20;;;25.30;99.90;;;;;;5007473;28;20841;-73
2023/09/18 00:37:21;;;;;;;5.40;4.40;;;25.30;99.90;;;;;;5010741;28;20764;-73
2023/09/18 00:39:49;;;;;;;5.20;4.60;;;25.20;99.90;;;;;;5006950;28;20176;-73
2023/09/18 00:42:16;;;;;;;5.23;3.90;;;25.20;99.90;;;;;;5007872;28;20200;-73
2023/09/18 00:44:41;;;;;;;4.50;4.10;;;25.20;99.90;;;;;;5008293;28;20428;-71
2023/09/18 00:47:08;;;;;;;13.03;10.83;;;25.20;99.90;;;;;;5006437;28;20949;-72
2023/09/18 00:49:35;;;;;;;5.40;4.50;;;25.20;99.90;;;;;;5008077;28;20192;-73
2023/09/18 00:52:02;;;;;;;7.40;5.37;;;25.10;99.90;;;;;;5007774;28;21012;-73
2023/09/18 00:54:28;;;;;;;8.20;5.57;;;25.10;99.90;;;;;;5005748;28;20435;-73
2023/09/18 00:56:54;;;;;;;7.43;6.07;;;25.00;99.90;;;;;;5005726;28;20459;-73
2023/09/18 00:59:21;;;;;;;7.37;4.87;;;24.90;99.90;;;;;;5007463;28;20437;-74
2023/09/18 01:01:49;;;;;;;7.20;4.10;;;25.00;99.90;;;;;;5005691;28;20538;-74
2023/09/18 01:04:17;;;;;;;6.23;4.97;;;25.00;99.90;;;;;;5003562;28;20435;-73
2023/09/18 01:06:42;;;;;;;7.87;5.37;;;24.90;99.90;;;;;;5008341;28;20461;-74
2023/09/18 01:09:12;;;;;;;6.23;5.73;;;24.80;99.90;;;;;;5004757;28;20436;-74
2023/09/18 01:12:02;;;;;;;10.10;5.00;;;24.70;99.90;;;;;;5022329;28;20201;-73
2023/09/18 01:14:31;;;;;;;5.57;4.80;;;24.70;99.90;;;;;;5004356;28;20449;-73
2023/09/18 01:16:58;;;;;;;6.33;4.80;;;24.70;99.90;;;;;;5012203;28;20462;-73
2023/09/18 01:19:45;;;;;;;8.30;4.77;;;24.70;99.90;;;;;;5010251;28;20429;-73
2023/09/18 01:22:12;;;;;;;6.80;4.93;;;24.70;99.90;;;;;;5011569;28;20493;-73
2023/09/18 01:24:39;;;;;;;10.70;5.33;;;24.60;99.90;;;;;;5011375;28;20442;-73
2023/09/18 01:27:08;;;;;;;12.13;5.83;;;24.60;99.90;;;;;;5033240;28;20438;-73
2023/09/18 01:29:34;;;;;;;7.43;4.70;;;24.50;99.90;;;;;;5013484;28;20443;-73
2023/09/18 01:31:59;;;;;;;8.33;4.97;;;24.40;99.90;;;;;;4998405;28;20474;-73
2023/09/18 01:34:37;;;;;;;9.10;5.17;;;24.40;99.90;;;;;;5014306;28;20811;-71
2023/09/18 01:37:05;;;;;;;10.33;5.73;;;24.30;99.90;;;;;;5016265;28;21507;-72
2023/09/18 01:39:32;;;;;;;9.50;5.00;;;24.20;99.90;;;;;;5016617;28;20457;-73
2023/09/18 01:42:01;;;;;;;6.37;5.17;;;24.00;99.90;;;;;;5017446;28;21009;-72
2023/09/18 01:44:27;;;;;;;8.30;5.03;;;24.10;99.90;;;;;;5014996;28;20518;-72
2023/09/18 01:46:56;;;;;;;6.57;5.10;;;24.10;99.90;;;;;;5013333;28;20513;-73
2023/09/18 01:49:34;;;;;;;6.40;5.20;;;24.00;99.90;;;;;;4994189;28;21136;-73
2023/09/18 01:52:01;;;;;;;11.50;5.63;;;24.00;99.90;;;;;;5020473;28;20446;-72
2023/09/18 01:54:27;;;;;;;5.83;4.93;;;24.00;99.90;;;;;;5014970;28;20511;-73
2023/09/18 01:56:53;;;;;;;6.10;4.80;;;24.00;99.90;;;;;;5014121;28;20554;-73
2023/09/18 01:59:19;;;;;;;8.73;5.27;;;23.90;99.90;;;;;;5016558;28;20582;-74
2023/09/18 02:01:44;;;;;;;6.17;4.93;;;24.00;99.90;;;;;;5011063;28;20450;-73
2023/09/18 02:04:10;;;;;;;8.13;5.33;;;24.00;99.90;;;;;;5007479;28;20457;-75
2023/09/18 02:06:36;;;;;;;6.60;4.80;;;23.90;99.90;;;;;;5015262;28;20176;-73
2023/09/18 02:09:03;;;;;;;9.83;5.00;;;23.80;99.90;;;;;;5011538;28;20652;-73
2023/09/18 02:11:29;;;;;;;5.90;4.93;;;23.80;99.90;;;;;;5012777;28;20267;-73
2023/09/18 02:13:54;;;;;;;12.73;4.50;;;23.70;99.90;;;;;;5027597;28;20958;-74
2023/09/18 02:16:23;;;;;;;8.93;5.27;;;23.40;99.90;;;;;;5005782;28;20327;-73
2023/09/18 02:18:49;;;;;;;7.30;5.00;;;23.40;99.90;;;;;;5015633;28;20224;-73
2023/09/18 02:21:21;;;;;;;6.27;5.00;;;23.40;99.90;;;;;;5007191;28;22925;-74
2023/09/18 02:23:54;;;;;;;8.33;4.97;;;23.40;99.90;;;;;;5013765;28;20701;-73
2023/09/18 02:26:21;;;;;;;8.43;5.10;;;23.40;99.90;;;;;;5010417;28;20431;-74
2023/09/18 02:28:47;;;;;;;12.30;4.83;;;23.30;99.90;;;;;;5017625;28;20458;-74
2023/09/18 02:31:13;;;;;;;12.20;5.33;;;23.30;99.90;;;;;;4991646;28;20484;-73
2023/09/18 02:33:40;;;;;;;7.30;5.30;;;23.30;99.90;;;;;;4970813;28;1093345;-73
2023/09/18 02:36:06;;;;;;;7.60;5.17;;;23.30;99.90;;;;;;5011607;28;20185;-73
2023/09/18 02:38:33;;;;;;;6.63;4.90;;;23.30;99.90;;;;;;4998291;28;20474;-74
2023/09/18 02:40:59;;;;;;;8.30;4.67;;;23.40;99.90;;;;;;5013623;28;20757;-73
2023/09/18 02:43:24;;;;;;;15.00;5.00;;;23.30;99.90;;;;;;5012744;28;21001;-73
2023/09/18 02:45:50;;;;;;;6.00;4.60;;;23.30;99.90;;;;;;5009340;28;20177;-73
2023/09/18 02:48:16;;;;;;;6.80;4.97;;;23.30;99.90;;;;;;5014901;28;20180;-72
2023/09/18 02:50:42;;;;;;;7.77;5.27;;;23.30;99.90;;;;;;5015421;28;20435;-74
2023/09/18 02:53:16;;;;;;;6.53;4.50;;;23.40;99.90;;;;;;5014502;28;20452;-74
2023/09/18 02:55:41;;;;;;;6.80;4.50;;;23.30;99.90;;;;;;5011975;28;20188;-73
2023/09/18 02:58:09;;;;;;;4.50;4.10;;;23.40;99.90;;;;;;4994630;28;20546;-73
2023/09/18 03:00:34;;;;;;;6.53;5.10;;;23.40;99.90;;;;;;5014586;28;20181;-73
2023/09/18 03:03:00;;;;;;;9.60;4.67;;;23.40;99.90;;;;;;5012183;28;20459;-73
2023/09/18 03:05:26;;;;;;;6.23;4.83;;;23.30;99.90;;;;;;5012906;28;20256;-73
2023/09/18 03:07:52;;;;;;;7.20;5.03;;;23.30;99.90;;;;;;5018472;28;20231;-72
2023/09/18 03:10:18;;;;;;;6.13;4.77;;;23.30;99.90;;;;;;5015524;28;20459;-73
2023/09/18 03:12:47;;;;;;;11.73;5.00;;;23.20;99.90;;;;;;5012355;28;20215;-73
2023/09/18 03:15:13;;;;;;;7.43;4.23;;;23.20;99.90;;;;;;5018060;28;20455;-73
2023/09/18 03:17:41;;;;;;;8.73;4.67;;;23.30;99.90;;;;;;5015371;28;21095;-74
2023/09/18 03:20:08;;;;;;;6.53;5.13;;;23.20;99.90;;;;;;5013000;28;20173;-73
2023/09/18 03:22:33;;;;;;;6.33;4.00;;;23.10;99.90;;;;;;5014067;28;20450;-74
2023/09/18 03:24:59;;;;;;;7.30;4.00;;;23.20;99.90;;;;;;5014813;28;20990;-73
2023/09/18 03:27:28;;;;;;;5.97;4.80;;;23.10;99.90;;;;;;5029336;28;20328;-74
2023/09/18 03:29:57;;;;;;;8.30;4.60;;;23.10;99.90;;;;;;5009677;28;20177;-74
2023/09/18 03:32:23;;;;;;;8.60;5.17;;;23.00;99.90;;;;;;5009162;28;20482;-74
2023/09/18 03:34:52;;;;;;;11.57;4.90;;;22.80;99.90;;;;;;4998438;28;20431;-73
2023/09/18 03:37:18;;;;;;;11.60;5.03;;;22.80;99.90;;;;;;5019128;28;20208;-73
2023/09/18 03:39:44;;;;;;;6.20;4.10;;;22.70;99.90;;;;;;5017506;28;21199;-73
2023/09/18 03:42:09;;;;;;;8.43;4.50;;;22.50;99.90;;;;;;5021387;28;20207;-76
2023/09/18 03:44:35;;;;;;;7.10;4.23;;;22.40;99.90;;;;;;5018736;28;20199;-76
2023/09/18 03:47:01;;;;;;;9.10;4.07;;;22.40;99.90;;;;;;5017620;28;20189;-72
2023/09/18 03:49:27;;;;;;;13.23;5.70;;;22.20;99.90;;;;;;5015729;28;20435;-71
2023/09/18 03:51:53;;;;;;;12.00;4.90;;;22.20;99.90;;;;;;5013219;28;20546;-72
2023/09/18 03:54:19;;;;;;;16.10;5.03;;;22.00;99.90;;;;;;5015963;28;20434;-71
2023/09/18 03:56:46;;;;;;;10.63;4.47;;;21.90;99.90;;;;;;5013763;28;20574;-72
2023/09/18 03:59:12;;;;;;;14.67;5.27;;;21.80;99.90;;;;;;5009730;28;20185;-72
2023/09/18 04:01:37;;;;;;;8.40;4.77;;;21.60;99.90;;;;;;5011105;28;20476;-72
2023/09/18 04:04:03;;;;;;;6.20;4.57;;;21.60;99.90;;;;;;5014600;28;20926;-72
2023/09/18 04:06:37;;;;;;;10.10;4.57;;;21.60;99.90;;;;;;5007624;28;20189;-72
2023/09/18 04:09:03;;;;;;;13.27;4.40;;;21.70;99.90;;;;;;5020069;28;20679;-72
2023/09/18 04:11:32;;;;;;;10.60;4.07;;;21.60;99.90;;;;;;4994971;28;20455;-72
2023/09/18 04:13:59;;;;;;;7.70;3.97;;;21.60;99.90;;;;;;5014222;28;20427;-73
2023/09/18 04:16:25;;;;;;;12.67;4.10;;;21.50;99.90;;;;;;5015548;28;20454;-72
2023/09/18 04:18:50;;;;;;;10.07;5.33;;;21.60;99.90;;;;;;4998101;28;20467;-72
2023/09/18 04:21:16;;;;;;;12.23;4.90;;;21.60;99.90;;;;;;4999082;28;20795;-72
2023/09/18 04:23:42;;;;;;;8.00;4.17;;;21.70;99.90;;;;;;5010661;28;20266;-72
2023/09/18 04:26:07;;;;;;;8.00;3.90;;;21.90;99.90;;;;;;5020400;28;20173;-73
2023/09/18 04:28:33;;;;;;;7.73;4.97;;;21.90;99.90;;;;;;5008631;28;20203;-73
2023/09/18 04:30:58;;;;;;;11.97;5.00;;;21.90;99.90;;;;;;5029228;28;20199;-72
2023/09/18 04:33:25;;;;;;;7.87;4.80;;;22.00;99.90;;;;;;5012603;28;20227;-73
2023/09/18 04:35:51;;;;;;;8.07;4.27;;;22.10;99.90;;;;;;5016171;28;20553;-71
2023/09/18 04:38:19;;;;;;;10.17;4.60;;;22.10;99.90;;;;;;5014311;28;20462;-71
2023/09/18 04:40:45;;;;;;;9.23;4.30;;;22.10;99.90;;;;;;5010443;28;20597;-71
2023/09/18 04:43:11;;;;;;;9.20;4.13;;;22.10;99.90;;;;;;5013038;28;20496;-71
2023/09/18 04:45:37;;;;;;;7.60;3.70;;;22.20;99.90;;;;;;5016547;28;20425;-72
2023/09/18 04:48:05;;;;;;;6.00;3.83;;;22.20;99.90;;;;;;5025422;28;20203;-72
2023/09/18 04:50:33;;;;;;;8.30;3.87;;;22.20;99.90;;;;;;5013038;28;20287;-73
2023/09/18 04:52:59;;;;;;;13.80;4.47;;;22.20;99.90;;;;;;5034874;28;20455;-73
2023/09/18 04:55:25;;;;;;;10.50;4.20;;;22.20;99.90;;;;;;5022018;28;20437;-72
2023/09/18 04:57:50;;;;;;;8.17;4.23;;;22.30;99.90;;;;;;5013564;28;20208;-72
2023/09/18 05:00:16;;;;;;;11.80;4.40;;;22.30;99.90;;;;;;5026332;28;20239;-76
2023/09/18 05:02:42;;;;;;;12.63;4.30;;;22.30;99.90;;;;;;5033297;28;20197;-75
2023/09/18 05:05:11;;;;;;;7.30;4.00;;;22.40;99.90;;;;;;5038748;28;20633;-74
2023/09/18 05:07:37;;;;;;;8.80;4.03;;;22.40;99.90;;;;;;5031023;28;20439;-75
2023/09/18 05:10:04;;;;;;;12.30;4.97;;;22.40;99.90;;;;;;5024987;28;20444;-74
2023/09/18 05:12:30;;;;;;;19.50;6.80;;;22.40;99.90;;;;;;5024240;28;20303;-74
2023/09/18 05:15:04;;;;;;;7.17;4.00;;;22.40;99.90;;;;;;5040437;28;20465;-75
2023/09/18 05:17:47;;;;;;;9.20;4.67;;;22.40;99.90;;;;;;5005357;28;21110;-75
2023/09/18 05:20:15;;;;;;;8.47;4.43;;;22.40;99.90;;;;;;5005637;28;20526;-76
2023/09/18 05:22:42;;;;;;;11.93;4.33;;;22.40;99.90;;;;;;5022065;28;20995;-76
2023/09/18 05:25:09;;;;;;;11.30;5.40;;;22.40;99.90;;;;;;5019029;28;20522;-77
2023/09/18 05:27:35;;;;;;;7.10;4.20;;;22.40;99.90;;;;;;5005195;28;20832;-71
2023/09/18 05:30:01;;;;;;;9.93;3.80;;;22.50;99.90;;;;;;5013739;28;21255;-73
2023/09/18 05:32:27;;;;;;;6.73;3.97;;;22.50;99.90;;;;;;5008715;28;20583;-72
2023/09/18 05:34:52;;;;;;;10.60;5.00;;;22.40;99.90;;;;;;4995034;28;20848;-72
2023/09/18 05:37:18;;;;;;;9.40;3.50;;;22.30;99.90;;;;;;5010865;28;20720;-73
2023/09/18 05:39:44;;;;;;;12.30;5.03;;;22.40;99.90;;;;;;5007168;28;20185;-73
2023/09/18 05:42:09;;;;;;;9.57;4.00;;;22.50;99.90;;;;;;5011078;28;20207;-73
2023/09/18 05:44:35;;;;;;;9.83;3.60;;;22.40;99.90;;;;;;5026384;28;20188;-73
2023/09/18 05:47:03;;;;;;;8.83;3.53;;;22.40;99.90;;;;;;5013456;28;20220;-74
2023/09/18 05:49:30;;;;;;;7.43;4.00;;;22.40;99.90;;;;;;5013957;28;20569;-73
2023/09/18 05:51:55;;;;;;;9.63;4.30;;;22.30;99.90;;;;;;5012028;28;20457;-74
2023/09/18 05:54:21;;;;;;;7.07;3.83;;;22.20;99.90;;;;;;5017031;28;20427;-73
2023/09/18 05:56:47;;;;;;;7.87;3.90;;;22.10;99.90;;;;;;5014500;28;20184;-74
2023/09/18 05:59:15;;;;;;;9.73;4.90;;;22.10;99.90;;;;;;5009231;28;20184;-73
2023/09/18 06:01:41;;;;;;;7.33;4.23;;;22.00;99.90;;;;;;5009136;28;20450;-73
2023/09/18 06:04:07;;;;;;;8.87;4.33;;;22.00;99.90;;;;;;5009525;28;20442;-72
2023/09/18 06:06:32;;;;;;;9.60;4.40;;;22.00;99.90;;;;;;5017933;28;20208;-73
2023/09/18 06:08:58;;;;;;;12.47;5.23;;;21.90;99.90;;;;;;5019062;28;20176;-72
2023/09/18 06:11:24;;;;;;;9.70;4.90;;;21.90;99.90;;;;;;5014751;28;20185;-72
2023/09/18 06:13:50;;;;;;;11.60;5.10;;;21.90;99.90;;;;;;5028281;28;20423;-73
2023/09/18 06:16:15;;;;;;;12.50;4.63;;;21.90;99.90;;;;;;5028825;28;20678;-72
2023/09/18 06:18:41;;;;;;;10.53;4.97;;;21.90;99.90;;;;;;5038457;28;20208;-71
2023/09/18 06:21:07;;;;;;;13.90;4.47;;;21.90;99.90;;;;;;5018911;28;20173;-72
2023/09/18 06:23:33;;;;;;;9.60;4.20;;;22.00;99.90;;;;;;5021185;28;20184;-73
2023/09/18 06:25:59;;;;;;;11.53;4.23;;;22.10;99.90;;;;;;5016770;28;20185;-73
2023/09/18 06:28:25;;;;;;;9.70;4.77;;;21.90;99.90;;;;;;5019601;28;20447;-73
2023/09/18 06:30:51;;;;;;;9.67;4.97;;;21.80;99.90;;;;;;4998652;28;20458;-73
2023/09/18 06:33:16;;;;;;;8.03;3.90;;;21.80;99.90;;;;;;5013856;28;20216;-73
2023/09/18 06:35:42;;;;;;;9.63;4.80;;;21.80;99.90;;;;;;5023223;28;21373;-73
2023/09/18 06:38:10;;;;;;;9.87;3.80;;;21.80;99.90;;;;;;5001589;28;20335;-73
2023/09/18 06:40:35;;;;;;;8.83;4.47;;;21.80;99.90;;;;;;5019021;28;20172;-73
2023/09/18 06:43:01;;;;;;;13.30;8.50;;;21.80;99.90;;;;;;5027852;28;20462;-73
2023/09/18 06:45:30;;;;;;;8.67;4.00;;;21.70;99.90;;;;;;5019740;28;22819;-73
2023/09/18 06:47:55;;;;;;;10.67;4.10;;;21.70;99.90;;;;;;5009834;28;21035;-73
2023/09/18 06:50:21;;;;;;;9.03;4.53;;;21.60;99.90;;;;;;5018126;28;20447;-74
2023/09/18 06:52:47;;;;;;;8.10;4.90;;;21.60;99.90;;;;;;5017667;28;20240;-74
2023/09/18 06:55:12;;;;;;;7.20;3.80;;;21.70;99.90;;;;;;5016352;28;20626;-74
2023/09/18 06:57:38;;;;;;;8.63;3.63;;;21.60;99.90;;;;;;5019113;28;20350;-73
2023/09/18 07:00:05;;;;;;;12.50;4.40;;;21.70;99.90;;;;;;5023370;28;20612;-73
2023/09/18 07:02:31;;;;;;;10.70;4.00;;;21.70;99.90;;;;;;5017053;28;20644;-73
2023/09/18 07:04:56;;;;;;;9.10;3.50;;;21.60;99.90;;;;;;5017125;28;20450;-72
2023/09/18 07:07:25;;;;;;;6.00;3.63;;;21.60;99.90;;;;;;5000676;28;20179;-73
2023/09/18 07:09:52;;;;;;;9.50;4.07;;;21.60;99.90;;;;;;5015598;28;20559;-73
2023/09/18 07:12:20;;;;;;;8.20;4.07;;;21.70;99.90;;;;;;5010153;28;20478;-73
2023/09/18 07:14:46;;;;;;;6.87;3.50;;;21.70;99.90;;;;;;5013276;28;20428;-72
2023/09/18 07:17:12;;;;;;;6.87;3.50;;;21.80;99.90;;;;;;5014006;28;20463;-73
2023/09/18 07:19:38;;;;;;;6.20;3.60;;;21.80;99.90;;;;;;5014980;28;20565;-73
2023/09/18 07:22:04;;;;;;;7.30;4.37;;;21.80;99.90;;;;;;4997909;28;20200;-72
2023/09/18 07:24:30;;;;;;;10.63;3.40;;;21.80;99.90;;;;;;5012971;28;20444;-72
2023/09/18 07:26:57;;;;;;;7.87;3.20;;;21.80;99.90;;;;;;5036734;28;20207;-72
2023/09/18 07:29:25;;;;;;;5.93;3.17;;;21.80;99.90;;;;;;5014426;28;20180;-73
2023/09/18 07:31:51;;;;;;;7.57;2.63;;;21.80;99.90;;;;;;5012078;28;20456;-73
2023/09/18 07:34:17;;;;;;;5.90;3.03;;;21.80;99.90;;;;;;5011149;28;20434;-73
2023/09/18 07:36:44;;;;;;;6.77;3.37;;;21.80;99.90;;;;;;5025140;28;20444;-73
2023/09/18 07:39:11;;;;;;;5.37;2.60;;;21.80;99.90;;;;;;5014440;28;20454;-73
2023/09/18 07:41:37;;;;;;;7.20;4.40;;;21.90;99.90;;;;;;5013360;28;20542;-73
2023/09/18 07:44:03;;;;;;;3.80;2.70;;;21.80;99.90;;;;;;5012536;28;20575;-74
2023/09/18 07:46:28;;;;;;;3.27;1.90;;;21.90;99.90;;;;;;5016287;28;20439;-73
2023/09/18 07:48:54;;;;;;;8.20;2.80;;;21.90;99.90;;;;;;4998429;28;21104;-73
2023/09/18 07:51:20;;;;;;;6.40;2.90;;;22.00;99.90;;;;;;5019243;28;20238;-73
2023/09/18 07:53:46;;;;;;;4.60;2.17;;;22.00;99.90;;;;;;5031377;28;20435;-74
2023/09/18 07:56:12;;;;;;;4.63;2.40;;;22.00;99.90;;;;;;5011254;28;20221;-74
2023/09/18 07:58:38;;;;;;;4.77;2.30;;;22.10;99.90;;;;;;5018112;28;20871;-75
2023/09/18 08:01:09;;;;;;;3.00;1.90;;;22.20;99.90;;;;;;5017726;28;20262;-75
2023/09/18 08:03:35;;;;;;;3.07;1.97;;;22.20;99.90;;;;;;5018085;28;20662;-75
2023/09/18 08:06:00;;;;;;;4.80;2.17;;;22.20;99.90;;;;;;5014793;28;20984;-73
2023/09/18 08:08:26;;;;;;;4.10;2.10;;;22.20;99.90;;;;;;5019370;28;20436;-74
2023/09/18 08:10:52;;;;;;;4.53;1.90;;;22.10;99.90;;;;;;5017661;28;20215;-74
2023/09/18 08:13:19;;;;;;;3.40;2.00;;;22.10;99.90;;;;;;5013171;28;20831;-72
2023/09/18 08:15:45;;;;;;;5.03;2.37;;;22.20;99.90;;;;;;5009508;28;20442;-73
2023/09/18 08:18:15;;;;;;;5.73;2.33;;;22.10;99.90;;;;;;5012842;28;20970;-74
2023/09/18 08:20:42;;;;;;;5.33;2.23;;;22.10;99.90;;;;;;5015948;28;20518;-73
2023/09/18 08:23:09;;;;;;;3.33;2.00;;;22.20;99.90;;;;;;5011253;28;20898;-74
2023/09/18 08:25:34;;;;;;;2.50;1.67;;;22.20;99.90;;;;;;5013128;28;20953;-74
2023/09/18 08:28:00;;;;;;;3.73;1.80;;;22.20;99.90;;;;;;5014777;28;20434;-74
2023/09/18 08:30:26;;;;;;;5.23;1.90;;;22.20;99.90;;;;;;5008334;28;20268;-74
2023/09/18 08:32:51;;;;;;;4.40;2.03;;;22.20;99.90;;;;;;4990564;28;20790;-75
2023/09/18 08:35:17;;;;;;;4.03;1.80;;;22.20;99.90;;;;;;5011612;28;20183;-73
2023/09/18 08:37:43;;;;;;;3.73;2.23;;;22.10;99.90;;;;;;5029136;28;20243;-72
2023/09/18 08:40:13;;;;;;;4.83;1.80;;;22.10;99.90;;;;;;4997366;28;20272;-73
2023/09/18 08:42:45;;;;;;;5.17;1.70;;;22.20;99.90;;;;;;5006973;28;20455;-73
2023/09/18 08:45:18;;;;;;;5.10;2.20;;;22.20;99.90;;;;;;4997271;28;20428;-73
2023/09/18 08:47:46;;;;;;;3.80;1.73;;;22.20;99.90;;;;;;5011335;28;20436;-74
2023/09/18 08:50:12;;;;;;;3.90;2.23;;;22.20;99.90;;;;;;4996429;28;20443;-72
2023/09/18 08:52:39;;;;;;;3.37;1.77;;;22.20;99.90;;;;;;5015365;28;21027;-73
2023/09/18 08:55:07;;;;;;;3.50;2.07;;;22.20;99.90;;;;;;5012593;28;20438;-73
2023/09/18 08:57:35;;;;;;;4.53;2.40;;;22.20;99.90;;;;;;5018443;28;20894;-73
2023/09/18 09:00:06;;;;;;;4.30;2.03;;;22.30;99.90;;;;;;5016456;28;20435;-73
2023/09/18 09:02:33;;;;;;;4.20;2.40;;;22.30;99.90;;;;;;5013676;28;20451;-72
2023/09/18 09:04:59;;;;;;;3.07;2.00;;;22.40;99.90;;;;;;5012318;28;20442;-72
2023/09/18 09:07:26;;;;;;;3.63;2.20;;;22.40;99.90;;;;;;5012239;28;20444;-71
2023/09/18 09:09:51;;;;;;;4.67;2.93;;;22.40;99.90;;;;;;5011595;28;20620;-72
2023/09/18 09:12:57;;;;;;;4.93;2.10;;;22.30;99.90;;;;;;5011627;28;20456;-74
2023/09/18 09:15:28;;;;;;;4.47;1.93;;;22.40;99.90;;;;;;4996764;28;20523;-72
2023/09/18 09:18:05;;;;;;;4.67;2.20;;;22.30;99.90;;;;;;4996520;28;20530;-73
2023/09/18 09:20:31;;;;;;;4.80;1.80;;;22.20;99.90;;;;;;5012726;28;20434;-72
2023/09/18 09:23:01;;;;;;;3.33;2.10;;;22.20;99.90;;;;;;5016142;28;20466;-72
2023/09/18 09:25:31;;;;;;;3.80;2.40;;;22.30;99.90;;;;;;5015283;28;20443;-72
2023/09/18 09:28:01;;;;;;;7.10;2.40;;;22.30;99.90;;;;;;5016131;28;21028;-73
2023/09/18 09:30:28;;;;;;;5.70;2.03;;;22.30;99.90;;;;;;5013911;28;20482;-73
2023/09/18 09:32:55;;;;;;;3.20;1.80;;;22.20;99.90;;;;;;5027558;28;20474;-73
2023/09/18 09:35:33;;;;;;;4.90;1.97;;;22.20;99.90;;;;;;5016889;28;20474;-73
2023/09/18 09:38:21;;;;;;;3.93;2.00;;;22.30;99.90;;;;;;5027265;28;20484;-72
2023/09/18 09:40:47;;;;;;;3.30;2.03;;;22.30;99.90;;;;;;4995500;28;20498;-73
2023/09/18 09:43:14;;;;;;;3.07;2.03;;;22.30;99.90;;;;;;5024864;28;20494;-72
2023/09/18 09:45:41;;;;;;;3.83;2.00;;;22.30;99.90;;;;;;5019482;28;20570;-74
2023/09/18 09:48:08;;;;;;;4.27;2.03;;;22.40;99.90;;;;;;5015594;28;20447;-73
2023/09/18 09:50:47;;;;;;;3.90;1.87;;;22.50;99.90;;;;;;5019449;28;20577;-73
2023/09/18 09:53:13;;;;;;;5.10;2.20;;;22.60;99.90;;;;;;5024297;28;20462;-73
2023/09/18 09:55:40;;;;;;;3.87;1.83;;;22.50;99.90;;;;;;5053733;28;20443;-73
2023/09/18 09:58:07;;;;;;;3.60;2.50;;;22.50;99.90;;;;;;5038933;28;20505;-73
2023/09/18 10:00:47;;;;;;;6.60;3.07;;;22.60;99.90;;;;;;5038610;28;20436;-73
2023/09/18 10:03:16;;;;;;;3.73;2.13;;;22.50;99.90;;;;;;5040522;28;20458;-75
2023/09/18 10:05:44;;;;;;;3.60;2.33;;;22.50;99.90;;;;;;5040420;28;20494;-74
2023/09/18 10:08:18;;;;;;;3.17;2.20;;;22.70;99.90;;;;;;5028033;28;20485;-76
2023/09/18 10:10:49;;;;;;;4.17;2.30;;;22.60;99.90;;;;;;5025595;28;20461;-75
2023/09/18 10:13:20;;;;;;;3.03;2.20;;;22.70;99.90;;;;;;5020072;28;20455;-75
2023/09/18 10:15:49;;;;;;;2.80;2.00;;;22.70;99.90;;;;;;5016982;28;20442;-74
2023/09/18 10:18:58;;;;;;;3.60;2.00;;;22.70;99.90;;;;;;5018989;28;20841;-76
2023/09/18 10:21:35;;;;;;;3.37;1.90;;;22.70;99.90;;;;;;5022798;28;20453;-76
2023/09/18 10:24:13;;;;;;;4.30;1.87;;;22.70;99.90;;;;;;4998493;28;20485;-74
2023/09/18 10:27:00;;;;;;;4.43;2.20;;;22.70;99.90;;;;;;4992799;28;20453;-76
2023/09/18 10:29:27;;;;;;;4.23;1.77;;;22.60;99.90;;;;;;5017183;28;20458;-76
2023/09/18 10:31:54;;;;;;;3.70;2.37;;;22.70;99.90;;;;;;5015865;28;20470;-77
2023/09/18 10:34:20;;;;;;;6.43;2.37;;;22.70;99.90;;;;;;5017766;28;20574;-77
2023/09/18 10:36:48;;;;;;;3.10;2.53;;;22.80;99.90;;;;;;5029164;28;20647;-76
2023/09/18 10:39:19;;;;;;;4.00;1.87;;;22.80;99.90;;;;;;5014505;28;22067;-76
2023/09/18 10:41:47;;;;;;;2.53;1.83;;;22.70;99.90;;;;;;5013053;28;20450;-76
2023/09/18 10:44:14;;;;;;;3.27;2.00;;;22.80;99.90;;;;;;5015779;28;20988;-76
2023/09/18 10:46:39;;;;;;;6.10;2.00;;;22.80;99.90;;;;;;5015365;28;20431;-76
2023/09/18 10:49:05;;;;;;;3.33;1.70;;;22.90;99.90;;;;;;5016406;28;20532;-74
2023/09/18 10:51:33;;;;;;;3.57;2.13;;;22.90;99.90;;;;;;5016635;28;20580;-75
2023/09/18 10:54:00;;;;;;;3.23;1.83;;;23.00;99.90;;;;;;5013655;28;20777;-76
2023/09/18 10:56:26;;;;;;;3.57;2.00;;;23.00;99.90;;;;;;5013573;28;20490;-75
2023/09/18 10:58:59;;;;;;;2.90;1.97;;;23.10;99.90;;;;;;5018881;28;20474;-77
2023/09/18 11:01:27;;;;;;;2.40;2.07;;;23.10;99.90;;;;;;5036180;28;21287;-77
2023/09/18 11:03:53;;;;;;;2.90;1.77;;;23.20;99.90;;;;;;5015569;28;20436;-77
2023/09/18 11:06:21;;;;;;;7.50;2.00;;;23.20;99.90;;;;;;5021047;28;20853;-76
2023/09/18 11:08:49;;;;;;;3.50;1.90;;;23.20;99.90;;;;;;5017905;28;20481;-75
2023/09/18 11:11:20;;;;;;;3.13;2.13;;;23.30;99.90;;;;;;5001095;28;20444;-77
2023/09/18 11:13:53;;;;;;;3.83;2.47;;;23.30;99.90;;;;;;5013924;28;20449;-77
2023/09/18 11:16:28;;;;;;;7.03;2.20;;;23.30;99.90;;;;;;5017690;28;20434;-75
2023/09/18 11:19:07;;;;;;;3.27;2.20;;;23.40;99.90;;;;;;5019438;28;20843;-77
2023/09/18 11:21:34;;;;;;;4.23;2.00;;;23.50;99.90;;;;;;5019014;28;21025;-75
2023/09/18 11:24:04;;;;;;;4.53;2.07;;;23.50;99.90;;;;;;5001211;28;20431;-76
2023/09/18 11:26:35;;;;;;;2.90;2.03;;;23.50;99.90;;;;;;5020873;28;20451;-75
2023/09/18 11:29:10;;;;;;;5.97;2.10;;;23.50;99.90;;;;;;5016541;28;20502;-76
2023/09/18 11:31:44;;;;;;;3.83;1.80;;;23.70;99.90;;;;;;5011781;28;20470;-76
2023/09/18 11:34:23;;;;;;;5.13;1.87;;;23.80;99.90;;;;;;5021961;28;21391;-76
2023/09/18 11:36:50;;;;;;;5.57;2.13;;;23.90;99.90;;;;;;5011468;28;20431;-76
2023/09/18 11:39:40;;;;;;;3.43;1.80;;;24.00;99.90;;;;;;5019297;28;20432;-76
2023/09/18 11:42:28;;;;;;;2.37;1.70;;;24.10;99.90;;;;;;5015864;28;20459;-76
2023/09/18 11:44:56;;;;;;;3.83;2.00;;;24.20;99.90;;;;;;5015280;28;20420;-76
2023/09/18 11:47:26;;;;;;;3.07;2.10;;;24.20;99.90;;;;;;5019376;28;20415;-76
2023/09/18 11:49:57;;;;;;;3.27;2.50;;;24.20;99.90;;;;;;5002177;28;20859;-76
2023/09/18 11:52:25;;;;;;;6.13;2.20;;;24.20;99.90;;;;;;5002126;28;20493;-76
2023/09/18 11:54:52;;;;;;;3.90;1.87;;;24.20;99.90;;;;;;5020814;28;20419;-75
2023/09/18 11:57:21;;;;;;;2.63;1.87;;;24.20;99.90;;;;;;5017567;28;20462;-75
2023/09/18 11:59:47;;;;;;;3.10;1.90;;;24.20;99.90;;;;;;5016490;28;20418;-76
2023/09/18 12:02:27;;;;;;;3.27;1.90;;;24.10;99.90;;;;;;5017712;28;20431;-76
2023/09/18 12:04:54;;;;;;;3.43;2.23;;;24.20;99.90;;;;;;5015126;28;20419;-76
2023/09/18 12:07:20;;;;;;;4.00;2.17;;;24.30;99.90;;;;;;5037749;28;20443;-77
2023/09/18 12:09:46;;;;;;;2.20;1.80;;;24.30;99.90;;;;;;5023429;28;20550;-77
2023/09/18 12:12:14;;;;;;;3.60;2.10;;;24.40;99.90;;;;;;5014583;28;21076;-77
2023/09/18 12:14:42;;;;;;;3.40;2.10;;;24.20;99.90;;;;;;5018224;28;22298;-77
2023/09/18 12:17:08;;;;;;;2.77;2.23;;;24.20;99.90;;;;;;5019653;28;20411;-77
2023/09/18 12:19:35;;;;;;;3.77;2.27;;;24.10;99.90;;;;;;5019930;28;20530;-77
2023/09/18 12:22:01;;;;;;;3.67;1.90;;;24.20;99.90;;;;;;5000552;28;20440;-76
2023/09/18 12:24:27;;;;;;;3.07;1.90;;;24.20;99.90;;;;;;5016156;28;21041;-78
2023/09/18 12:26:54;;;;;;;4.40;2.10;;;24.20;99.90;;;;;;5019816;28;20419;-77
2023/09/18 12:29:20;;;;;;;3.33;2.10;;;24.20;99.90;;;;;;5030819;28;20435;-79
2023/09/18 12:31:47;;;;;;;4.23;2.03;;;24.30;99.90;;;;;;4996563;28;20502;-76
2023/09/18 12:34:21;;;;;;;2.90;2.00;;;24.30;99.90;;;;;;4998744;28;20439;-77
2023/09/18 12:36:47;;;;;;;3.30;1.90;;;24.30;99.90;;;;;;5017151;28;20436;-79
2023/09/18 12:39:16;;;;;;;3.50;1.90;;;24.30;99.90;;;;;;5001719;28;20463;-77
2023/09/18 12:41:47;;;;;;;3.60;2.13;;;24.40;99.90;;;;;;5013223;28;20501;-75
2023/09/18 12:44:16;;;;;;;3.50;2.07;;;24.50;99.90;;;;;;5008171;28;20468;-75
2023/09/18 12:46:43;;;;;;;3.37;2.30;;;24.50;99.90;;;;;;5018023;28;20938;-76
2023/09/18 12:49:18;;;;;;;4.17;2.43;;;24.60;99.90;;;;;;5010699;28;20443;-76